createdAt,value
2022-07-29T00:01:19.509Z,100994.03
2022-07-29T00:03:47.030Z,101006.56
2022-07-29T00:06:15.653Z,101008.03
2022-07-29T00:08:42.740Z,101004.28
2022-07-29T00:11:09.935Z,100998.44
2022-07-29T00:13:37.289Z,100986.22
2022-07-29T00:16:05.314Z,100982.06
2022-07-29T00:18:33.476Z,100978.06
2022-07-29T00:21:00.891Z,100982.72
2022-07-29T00:23:27.947Z,100987.34
2022-07-29T00:25:54.946Z,100989.72
2022-07-29T00:28:21.885Z,100990.50
2022-07-29T00:30:49.052Z,100989.53
2022-07-29T00:33:16.126Z,100979.25
2022-07-29T00:35:45.869Z,100979.06
2022-07-29T00:38:18.754Z,100981.41
2022-07-29T00:40:47.257Z,100983.19
2022-07-29T00:43:16.202Z,100990.47
2022-07-29T00:45:43.795Z,100995.66
2022-07-29T00:48:11.459Z,100996.34
2022-07-29T00:50:39.308Z,100987.75
2022-07-29T00:53:09.602Z,100982.09
2022-07-29T00:55:36.860Z,100980.00
2022-07-29T00:58:04.056Z,100970.94
2022-07-29T01:00:31.615Z,100975.19
2022-07-29T01:02:58.898Z,100970.56
2022-07-29T01:05:50.188Z,100969.34
2022-07-29T01:08:17.455Z,100969.88
2022-07-29T01:10:45.525Z,100976.59
2022-07-29T01:13:13.563Z,100967.25
2022-07-29T01:15:49.105Z,100969.16
2022-07-29T01:18:48.387Z,100974.00
2022-07-29T01:21:39.005Z,100976.84
2022-07-29T01:24:51.800Z,100975.53
2022-07-29T01:27:30.582Z,100971.63
2022-07-29T01:30:01.085Z,100958.16
2022-07-29T01:32:39.086Z,100952.66
2022-07-29T01:35:23.404Z,100945.31
2022-07-29T01:38:12.347Z,100949.63
2022-07-29T01:40:49.588Z,100950.00
2022-07-29T01:43:22.677Z,100947.63
2022-07-29T01:45:58.892Z,100943.38
2022-07-29T01:48:40.295Z,100938.09
2022-07-29T01:51:16.268Z,100933.09
2022-07-29T01:53:57.996Z,100935.16
2022-07-29T01:56:26.726Z,100935.53
2022-07-29T01:58:55.744Z,100942.25
2022-07-29T02:01:26.928Z,100932.53
2022-07-29T02:03:55.434Z,100934.59
2022-07-29T02:06:24.139Z,100941.47
2022-07-29T02:08:54.194Z,100941.66
2022-07-29T02:11:21.139Z,100945.63
2022-07-29T02:13:49.951Z,100944.28
2022-07-29T02:16:22.355Z,100954.06
2022-07-29T02:18:52.457Z,100957.66
2022-07-29T02:21:28.442Z,100969.78
2022-07-29T02:24:00.166Z,100970.16
2022-07-29T02:26:29.711Z,100969.47
2022-07-29T02:28:58.746Z,100977.41
2022-07-29T02:31:31.608Z,100971.25
2022-07-29T02:33:59.661Z,100970.97
2022-07-29T02:36:28.231Z,100971.34
2022-07-29T02:38:58.737Z,100971.34
2022-07-29T02:41:31.747Z,100973.41
2022-07-29T02:44:07.648Z,100965.19
2022-07-29T02:46:37.942Z,100974.78
2022-07-29T02:49:35.800Z,100965.25
2022-07-29T02:52:22.359Z,100965.78
2022-07-29T02:55:03.520Z,100964.75
2022-07-29T02:57:54.690Z,100972.78
2022-07-29T03:00:28.893Z,100975.16
2022-07-29T03:02:59.806Z,100970.72
2022-07-29T03:05:27.865Z,100976.56
2022-07-29T03:08:03.194Z,100982.38
2022-07-29T03:10:31.591Z,100975.19
2022-07-29T03:12:59.544Z,100982.38
2022-07-29T03:15:27.515Z,100981.00
2022-07-29T03:17:56.555Z,100982.50
2022-07-29T03:20:24.003Z,100981.31
2022-07-29T03:22:51.374Z,100975.16
2022-07-29T03:25:20.990Z,100985.63
2022-07-29T03:27:49.528Z,100991.13
2022-07-29T03:30:18.404Z,100992.53
2022-07-29T03:32:53.856Z,100992.72
2022-07-29T03:35:21.599Z,100990.81
2022-07-29T03:37:48.613Z,100993.56
2022-07-29T03:40:25.954Z,100996.09
2022-07-29T03:42:55.877Z,100999.03
2022-07-29T03:45:24.958Z,100991.66
2022-07-29T03:48:05.058Z,100988.94
2022-07-29T03:50:34.203Z,100993.72
2022-07-29T03:53:02.821Z,100993.56
2022-07-29T03:55:35.042Z,100993.38
2022-07-29T03:58:04.202Z,100992.31
2022-07-29T04:00:33.202Z,100993.19
2022-07-29T04:03:00.845Z,100990.47
2022-07-29T04:05:28.348Z,100992.16
2022-07-29T04:07:55.458Z,100978.66
2022-07-29T04:10:30.658Z,100976.78
2022-07-29T04:13:00.823Z,100984.50
2022-07-29T04:15:31.358Z,100985.03
2022-07-29T04:18:00.123Z,100995.47
2022-07-29T04:20:27.485Z,100993.78
2022-07-29T04:22:54.455Z,100992.94
2022-07-29T04:25:21.667Z,101009.50
2022-07-29T04:28:04.055Z,101008.50
2022-07-29T04:30:32.885Z,101006.13
2022-07-29T04:33:02.130Z,101011.75
2022-07-29T04:35:31.097Z,101018.25
2022-07-29T04:38:07.049Z,101030.38
2022-07-29T04:40:35.099Z,101033.66
2022-07-29T04:43:05.885Z,101038.94
2022-07-29T04:45:33.230Z,101041.50
2022-07-29T04:48:00.236Z,101055.16
2022-07-29T04:50:27.407Z,101054.47
2022-07-29T04:52:54.432Z,101065.09
2022-07-29T04:55:21.710Z,101074.31
2022-07-29T04:57:49.189Z,101063.53
2022-07-29T05:00:17.141Z,101058.09
2022-07-29T05:02:44.475Z,101061.19
2022-07-29T05:05:11.947Z,101055.72
2022-07-29T05:07:42.357Z,101054.53
2022-07-29T05:10:10.030Z,101056.56
2022-07-29T05:12:37.091Z,101054.53
2022-07-29T05:15:04.657Z,101053.31
2022-07-29T05:17:31.775Z,101053.81
2022-07-29T05:19:58.960Z,101062.31
2022-07-29T05:22:26.264Z,101058.38
2022-07-29T05:24:53.581Z,101060.94
2022-07-29T05:27:20.979Z,101058.88
2022-07-29T05:29:48.358Z,101059.06
2022-07-29T05:32:15.681Z,101057.66
2022-07-29T05:34:50.813Z,101056.31
2022-07-29T05:37:20.911Z,101053.03
2022-07-29T05:39:50.694Z,101039.69
2022-07-29T05:42:26.317Z,101039.53
2022-07-29T05:44:54.075Z,101042.78
2022-07-29T05:47:25.084Z,101039.03
2022-07-29T05:49:52.213Z,101036.13
2022-07-29T05:52:19.523Z,101042.78
2022-07-29T05:54:46.757Z,101044.47
2022-07-29T05:57:22.696Z,101046.66
2022-07-29T05:59:51.239Z,101043.56
2022-07-29T06:02:18.812Z,101041.69
2022-07-29T06:04:45.976Z,101050.06
2022-07-29T06:07:12.996Z,101049.50
2022-07-29T06:09:40.207Z,101047.66
2022-07-29T06:12:07.374Z,101049.84
2022-07-29T06:14:34.367Z,101054.94
2022-07-29T06:17:01.533Z,101064.84
2022-07-29T06:19:28.586Z,101055.44
2022-07-29T06:21:55.958Z,101057.63
2022-07-29T06:24:23.002Z,101067.91
2022-07-29T06:26:50.175Z,101073.03
2022-07-29T06:29:17.155Z,101081.22
2022-07-29T06:31:44.122Z,101079.34
2022-07-29T06:34:11.351Z,101069.25
2022-07-29T06:36:39.751Z,101071.28
2022-07-29T06:39:09.460Z,101068.56
2022-07-29T06:41:38.639Z,101065.19
2022-07-29T06:44:10.881Z,101078.97
2022-07-29T06:46:38.001Z,101070.44
2022-07-29T06:49:05.931Z,101071.16
2022-07-29T06:51:33.192Z,101070.44
2022-07-29T06:54:03.379Z,101078.88
2022-07-29T06:56:39.856Z,101073.38
2022-07-29T06:59:10.117Z,101073.88
2022-07-29T07:01:43.171Z,101072.66
2022-07-29T07:04:11.821Z,101079.66
2022-07-29T07:06:39.278Z,101079.97
2022-07-29T07:09:06.673Z,101076.69
2022-07-29T07:11:34.419Z,101082.19
2022-07-29T07:14:03.938Z,101073.75
2022-07-29T07:16:32.731Z,101077.19
2022-07-29T07:19:00.748Z,101084.69
2022-07-29T07:21:30.143Z,101076.66
2022-07-29T07:23:58.613Z,101072.03
2022-07-29T07:26:26.232Z,101076.28
2022-07-29T07:28:53.224Z,101068.56
2022-07-29T07:31:20.970Z,101073.13
2022-07-29T07:33:48.238Z,101076.38
2022-07-29T07:36:15.664Z,101079.59
2022-07-29T07:38:42.887Z,101076.28
2022-07-29T07:41:10.041Z,101072.63
2022-07-29T07:43:37.076Z,101068.31
2022-07-29T07:46:04.179Z,101063.63
2022-07-29T07:48:31.430Z,101068.53
2022-07-29T07:50:58.422Z,101059.56
2022-07-29T07:53:25.517Z,101059.41
2022-07-29T07:56:10.069Z,101055.97
2022-07-29T07:58:38.406Z,101058.28
2022-07-29T08:01:05.507Z,101050.84
2022-07-29T08:03:32.627Z,101044.97
2022-07-29T08:05:59.631Z,101048.69
2022-07-29T08:08:26.690Z,101049.78
2022-07-29T08:10:53.782Z,101052.06
2022-07-29T08:13:29.321Z,101057.91
2022-07-29T08:16:12.360Z,101056.16
2022-07-29T08:18:41.843Z,101051.22
2022-07-29T08:21:09.074Z,101057.84
2022-07-29T08:23:46.239Z,101047.44
2022-07-29T08:26:16.542Z,101047.16
2022-07-29T08:28:46.841Z,101049.06
2022-07-29T08:31:15.051Z,101050.97
2022-07-29T08:33:43.329Z,101059.28
2022-07-29T08:36:11.120Z,101057.63
2022-07-29T08:38:38.254Z,101057.09
2022-07-29T08:41:05.954Z,101063.50
2022-07-29T08:43:36.094Z,101050.75
2022-07-29T08:46:03.242Z,101053.41
2022-07-29T08:48:30.833Z,101056.25
2022-07-29T08:50:59.017Z,101056.50
2022-07-29T08:53:28.190Z,101055.94
2022-07-29T08:55:57.084Z,101047.97
2022-07-29T08:58:25.972Z,101052.69
2022-07-29T09:00:56.679Z,101052.38
2022-07-29T09:03:31.322Z,101055.00
2022-07-29T09:06:00.251Z,101036.94
2022-07-29T09:08:27.663Z,101038.03
2022-07-29T09:10:56.847Z,101035.28
2022-07-29T09:13:24.073Z,101030.47
2022-07-29T09:15:51.014Z,101030.72
2022-07-29T09:18:41.731Z,101025.75
2022-07-29T09:21:33.558Z,101020.50
2022-07-29T09:24:11.594Z,101021.41
2022-07-29T09:26:45.421Z,101012.59
2022-07-29T09:29:16.223Z,101021.06
2022-07-29T09:31:49.823Z,101019.66
2022-07-29T09:34:22.019Z,101015.00
2022-07-29T09:36:52.041Z,101014.28
2022-07-29T09:39:45.181Z,101011.59
2022-07-29T09:42:13.442Z,101007.50
2022-07-29T09:44:49.158Z,101007.63
2022-07-29T09:47:18.558Z,101003.25
2022-07-29T09:50:12.183Z,101008.38
2022-07-29T09:52:54.378Z,101001.84
2022-07-29T09:55:21.672Z,101000.16
2022-07-29T09:57:49.175Z,100998.53
2022-07-29T10:00:23.891Z,100989.94
2022-07-29T10:02:52.019Z,100993.09
2022-07-29T10:05:25.877Z,100981.88
2022-07-29T10:07:59.346Z,100976.31
2022-07-29T10:10:27.328Z,100987.50
2022-07-29T10:13:09.805Z,100983.94
2022-07-29T10:15:44.795Z,100987.53
2022-07-29T10:18:14.553Z,100988.22
2022-07-29T10:20:42.638Z,100991.63
2022-07-29T10:23:11.090Z,100988.69
2022-07-29T10:25:38.524Z,100981.56
2022-07-29T10:28:07.246Z,100978.41
2022-07-29T10:30:34.734Z,100975.88
2022-07-29T10:33:28.827Z,100980.78
2022-07-29T10:36:20.074Z,100976.19
2022-07-29T10:39:41.847Z,100982.09
2022-07-29T10:42:20.310Z,100969.84
2022-07-29T10:44:57.764Z,100965.81
2022-07-29T10:47:28.385Z,100966.44
2022-07-29T10:50:01.618Z,100949.47
2022-07-29T10:52:50.381Z,100948.66
2022-07-29T10:55:45.538Z,100953.13
2022-07-29T10:58:21.317Z,100947.38
2022-07-29T11:00:53.681Z,100937.41
2022-07-29T11:03:52.328Z,100929.53
2022-07-29T11:06:26.188Z,100922.31
2022-07-29T11:09:20.323Z,100926.94
2022-07-29T11:11:53.488Z,100922.03
2022-07-29T11:15:03.644Z,100919.09
2022-07-29T11:17:47.020Z,100925.88
2022-07-29T11:20:42.528Z,100912.69
2022-07-29T11:23:33.874Z,100902.44
2022-07-29T11:26:13.615Z,100904.09
2022-07-29T11:29:05.500Z,100909.66
2022-07-29T11:31:34.350Z,100896.69
2022-07-29T11:34:22.669Z,100901.28
2022-07-29T11:37:14.974Z,100894.69
2022-07-29T11:39:54.068Z,100902.91
2022-07-29T11:42:28.194Z,100888.66
2022-07-29T11:45:43.403Z,100898.78
2022-07-29T11:48:29.854Z,100887.53
2022-07-29T11:50:49.368Z,100891.59
2022-07-29T11:53:17.264Z,100889.69
2022-07-29T11:55:51.315Z,100891.53
2022-07-29T11:58:26.278Z,100889.31
2022-07-29T12:00:55.782Z,100881.03
2022-07-29T12:03:32.957Z,100875.22
2022-07-29T12:06:07.590Z,100887.03
2022-07-29T12:08:43.602Z,100879.16
2022-07-29T12:11:21.300Z,100882.81
2022-07-29T12:13:49.822Z,100876.59
2022-07-29T12:16:25.755Z,100871.09
2022-07-29T12:19:01.988Z,100859.66
2022-07-29T12:21:54.031Z,100857.28
2022-07-29T12:24:26.669Z,100856.84
2022-07-29T12:26:59.981Z,100844.25
2022-07-29T12:29:33.801Z,100840.72
2022-07-29T12:32:14.233Z,100836.03
2022-07-29T12:34:42.977Z,100832.66
2022-07-29T12:37:11.210Z,100841.94
2022-07-29T12:39:39.391Z,100839.75
2022-07-29T12:42:18.416Z,100832.94
2022-07-29T12:44:51.032Z,100839.56
2022-07-29T12:47:19.837Z,100833.56
2022-07-29T12:49:47.963Z,100832.59
2022-07-29T12:52:37.209Z,100830.22
2022-07-29T12:55:06.185Z,100826.78
2022-07-29T12:57:54.465Z,100826.44
2022-07-29T13:00:25.859Z,100805.44
2022-07-29T13:02:59.297Z,100798.59
2022-07-29T13:05:49.176Z,100785.88
2022-07-29T13:08:22.724Z,100787.03
2022-07-29T13:10:50.358Z,100790.16
2022-07-29T13:13:17.373Z,100788.38
2022-07-29T13:15:49.669Z,100800.91
2022-07-29T13:18:37.226Z,100807.66
2022-07-29T13:21:16.671Z,100790.78
2022-07-29T13:23:45.944Z,100782.59
2022-07-29T13:26:13.493Z,100775.25
2022-07-29T13:28:44.109Z,100770.44
2022-07-29T13:31:12.312Z,100776.66
2022-07-29T13:33:39.340Z,100778.00
2022-07-29T13:36:07.055Z,100781.69
2022-07-29T13:38:34.932Z,100786.91
2022-07-29T13:41:02.864Z,100779.28
2022-07-29T13:43:30.391Z,100789.84
2022-07-29T13:45:57.487Z,100787.88
2022-07-29T13:48:24.459Z,100785.06
2022-07-29T13:50:51.529Z,100784.31
2022-07-29T13:53:18.483Z,100789.31
2022-07-29T13:55:46.319Z,100792.13
2022-07-29T13:58:14.528Z,100794.75
2022-07-29T14:00:41.517Z,100791.22
2022-07-29T14:03:08.566Z,100787.47
2022-07-29T14:05:35.539Z,100782.03
2022-07-29T14:08:02.542Z,100771.06
2022-07-29T14:10:30.363Z,100778.94
2022-07-29T14:12:58.329Z,100785.41
2022-07-29T14:15:26.041Z,100791.59
2022-07-29T14:17:52.993Z,100798.66
2022-07-29T14:20:26.406Z,100817.19
2022-07-29T14:22:53.417Z,100812.78
2022-07-29T14:25:21.695Z,100805.00
2022-07-29T14:27:50.599Z,100813.22
2022-07-29T14:30:17.823Z,100815.63
2022-07-29T14:32:44.882Z,100821.84
2022-07-29T14:35:12.328Z,100818.97
2022-07-29T14:37:42.832Z,100823.50
2022-07-29T14:40:12.343Z,100824.88
2022-07-29T14:42:40.023Z,100839.34
2022-07-29T14:45:09.517Z,100864.44
2022-07-29T14:47:36.888Z,100865.34
2022-07-29T14:50:06.186Z,100887.44
2022-07-29T14:52:36.184Z,100869.63
2022-07-29T14:55:05.196Z,100864.53
2022-07-29T14:57:43.356Z,100867.13
2022-07-29T15:00:12.153Z,100865.00
2022-07-29T15:03:00.328Z,100852.72
2022-07-29T15:05:26.709Z,100852.75
2022-07-29T15:07:54.481Z,100859.31
2022-07-29T15:10:21.688Z,100868.59
2022-07-29T15:12:57.943Z,100873.69
2022-07-29T15:18:42.810Z,100877.06
2022-07-29T15:21:10.852Z,100881.06
2022-07-29T15:23:38.180Z,100887.41
2022-07-29T15:26:05.487Z,100883.81
2022-07-29T15:28:32.834Z,100883.81
2022-07-29T15:31:00.363Z,100884.84
2022-07-29T15:33:27.709Z,100877.22
2022-07-29T15:35:57.100Z,100871.69
2022-07-29T15:38:28.847Z,100876.13
2022-07-29T15:40:56.087Z,100868.28
2022-07-29T15:43:24.269Z,100877.56
2022-07-29T15:46:12.309Z,100870.38
2022-07-29T15:48:40.344Z,100880.09
2022-07-29T15:51:07.758Z,100897.84
2022-07-29T15:53:35.306Z,100891.66
2022-07-29T15:56:03.446Z,100881.91
2022-07-29T15:58:31.017Z,100884.44
2022-07-29T16:00:58.086Z,100875.97
2022-07-29T16:03:25.188Z,100855.44
2022-07-29T16:05:52.169Z,100854.59
2022-07-29T16:08:19.401Z,100842.09
2022-07-29T16:10:46.487Z,100832.56
2022-07-29T16:13:17.115Z,100814.13
2022-07-29T16:15:46.259Z,100797.00
2022-07-29T16:18:31.291Z,100807.75
2022-07-29T16:20:58.738Z,100807.13
2022-07-29T16:23:25.746Z,100818.09
2022-07-29T16:26:01.270Z,100810.47
2022-07-29T16:28:30.387Z,100798.84
2022-07-29T16:30:58.209Z,100798.19
2022-07-29T16:33:25.685Z,100786.59
2022-07-29T16:35:53.261Z,100795.84
2022-07-29T16:38:20.394Z,100787.63
2022-07-29T16:40:47.476Z,100792.47
2022-07-29T16:43:14.871Z,100785.50
2022-07-29T16:45:46.276Z,100776.81
2022-07-29T16:48:15.113Z,100779.72
2022-07-29T16:50:45.498Z,100798.72
2022-07-29T16:53:12.484Z,100797.63
2022-07-29T16:55:42.353Z,100800.09
2022-07-29T16:58:11.219Z,100797.31
2022-07-29T17:00:39.707Z,100794.50
2022-07-29T17:03:07.056Z,100805.06
2022-07-29T17:05:53.692Z,100798.09
2022-07-29T17:08:22.204Z,100809.88
2022-07-29T17:10:49.584Z,100828.22
2022-07-29T17:13:16.538Z,100834.06
2022-07-29T17:15:44.148Z,100854.25
2022-07-29T17:18:12.407Z,100858.00
2022-07-29T17:20:41.958Z,100864.16
2022-07-29T17:23:09.604Z,100870.69
2022-07-29T17:25:37.551Z,100871.75
2022-07-29T17:28:05.259Z,100872.22
2022-07-29T17:30:32.486Z,100864.47
2022-07-29T17:32:59.546Z,100874.38
2022-07-29T17:35:45.108Z,100878.78
2022-07-29T17:38:12.133Z,100896.88
2022-07-29T17:40:39.153Z,100893.47
2022-07-29T17:43:09.261Z,100893.47
2022-07-29T17:45:49.037Z,100897.63
2022-07-29T17:48:18.309Z,100890.81
2022-07-29T17:50:46.426Z,100899.72
2022-07-29T17:53:16.797Z,100908.50
2022-07-29T17:55:46.378Z,100900.53
2022-07-29T17:58:15.833Z,100897.06
2022-07-29T18:00:43.016Z,100904.50
2022-07-29T18:03:10.592Z,100904.69
2022-07-29T18:05:37.734Z,100917.16
2022-07-29T18:08:05.160Z,100911.16
2022-07-29T18:10:32.447Z,100911.31
2022-07-29T18:12:59.674Z,100915.59
2022-07-29T18:15:26.791Z,100909.78
2022-07-29T18:17:57.617Z,100910.44
2022-07-29T18:20:26.887Z,100902.06
2022-07-29T18:22:54.203Z,100905.53
2022-07-29T18:25:21.464Z,100918.88
2022-07-29T18:27:48.962Z,100917.06
2022-07-29T18:30:16.505Z,100912.06
2022-07-29T18:32:59.162Z,100926.56
2022-07-29T18:35:32.397Z,100944.91
2022-07-29T18:38:02.200Z,100929.22
2022-07-29T18:40:32.787Z,100926.09
2022-07-29T18:42:59.775Z,100927.59
2022-07-29T18:45:28.345Z,100932.41
2022-07-29T18:47:56.862Z,100943.91
2022-07-29T18:50:29.687Z,100942.59
2022-07-29T18:52:59.006Z,100938.81
2022-07-29T18:55:26.791Z,100942.41
2022-07-29T18:57:56.530Z,100948.59
2022-07-29T19:00:26.132Z,100943.28
2022-07-29T19:02:53.512Z,100944.69
2022-07-29T19:05:21.033Z,100962.03
2022-07-29T19:07:48.076Z,100970.97
2022-07-29T19:10:15.053Z,100973.03
2022-07-29T19:12:42.495Z,100993.22
2022-07-29T19:15:10.697Z,101006.16
2022-07-29T19:17:38.855Z,101017.22
2022-07-29T19:20:08.883Z,101023.00
2022-07-29T19:22:36.147Z,101023.47
2022-07-29T19:25:03.412Z,101022.47
2022-07-29T19:27:30.696Z,101027.06
2022-07-29T19:29:59.497Z,101029.78
2022-07-29T19:32:27.289Z,101015.94
2022-07-29T19:35:19.003Z,101006.41
2022-07-29T19:37:46.025Z,101010.53
2022-07-29T19:40:14.062Z,101013.81
2022-07-29T19:42:41.068Z,101018.06
2022-07-29T19:45:08.969Z,101008.81
2022-07-29T19:47:36.529Z,101005.41
2022-07-29T19:50:04.165Z,101001.34
2022-07-29T19:52:31.119Z,101001.53
2022-07-29T19:54:58.544Z,101004.44
2022-07-29T19:57:25.711Z,101012.66
2022-07-29T19:59:54.443Z,101004.81
2022-07-29T20:02:23.668Z,101010.13
2022-07-29T20:04:50.843Z,101014.38
2022-07-29T20:07:17.897Z,101007.88
2022-07-29T20:09:46.054Z,101004.75
2022-07-29T20:12:13.198Z,101005.41
2022-07-29T20:14:40.355Z,101012.41
2022-07-29T20:17:07.531Z,101020.44
2022-07-29T20:19:35.924Z,101016.50
2022-07-29T20:22:03.250Z,101012.72
2022-07-29T20:24:30.401Z,101013.78
2022-07-29T20:26:57.753Z,101021.78
2022-07-29T20:29:25.660Z,101011.69
2022-07-29T20:31:56.208Z,101018.00
2022-07-29T20:34:24.252Z,101010.63
2022-07-29T20:36:51.687Z,101006.88
2022-07-29T20:39:21.027Z,101007.91
2022-07-29T20:41:49.217Z,101009.16
2022-07-29T20:44:18.764Z,101014.78
2022-07-29T20:46:45.890Z,101008.66
2022-07-29T20:49:12.961Z,101016.00
2022-07-29T20:51:43.951Z,101019.09
2022-07-29T20:54:12.239Z,101011.28
2022-07-29T20:56:39.951Z,101021.53
2022-07-29T20:59:08.917Z,101027.38
2022-07-29T21:01:36.276Z,101029.97
2022-07-29T21:04:03.891Z,101032.22
2022-07-29T21:06:31.580Z,101027.13
2022-07-29T21:08:59.803Z,101020.97
2022-07-29T21:11:44.323Z,101031.41
2022-07-29T21:14:22.960Z,101025.28
2022-07-29T21:16:50.662Z,101015.19
2022-07-29T21:19:17.741Z,101024.91
2022-07-29T21:21:44.825Z,101023.94
2022-07-29T21:24:12.172Z,101026.84
2022-07-29T21:26:39.366Z,101028.91
2022-07-29T21:29:06.777Z,101025.13
2022-07-29T21:31:34.118Z,101026.84
2022-07-29T21:34:01.119Z,101025.53
2022-07-29T21:36:47.662Z,101030.66
2022-07-29T21:39:15.484Z,101029.13
2022-07-29T21:41:43.156Z,101029.69
2022-07-29T21:44:10.323Z,101026.09
2022-07-29T21:46:37.606Z,101029.00
2022-07-29T21:49:04.851Z,101029.69
2022-07-29T21:51:31.869Z,101025.91
2022-07-29T21:53:58.889Z,101020.78
2022-07-29T21:56:27.833Z,101022.69
2022-07-29T21:58:55.830Z,101020.09
2022-07-29T22:01:22.953Z,101019.59
2022-07-29T22:03:50.017Z,101015.16
2022-07-29T22:06:18.001Z,101013.63
2022-07-29T22:08:46.115Z,101016.06
2022-07-29T22:11:13.554Z,101006.31
2022-07-29T22:13:40.755Z,101005.28
2022-07-29T22:16:10.109Z,101008.72
2022-07-29T22:18:37.118Z,101018.94
2022-07-29T22:21:04.131Z,101014.03
2022-07-29T22:23:31.331Z,101020.69
2022-07-29T22:25:58.542Z,101012.50
2022-07-29T22:28:25.742Z,101018.31
2022-07-29T22:30:52.726Z,101019.50
2022-07-29T22:33:19.790Z,101019.72
2022-07-29T22:35:48.725Z,101022.59
2022-07-29T22:38:17.902Z,101016.81
2022-07-29T22:40:46.968Z,101026.41
2022-07-29T22:43:15.920Z,101021.09
2022-07-29T22:45:42.897Z,101027.41
2022-07-29T22:48:10.531Z,101022.81
2022-07-29T22:50:38.529Z,101029.66
2022-07-29T22:53:05.528Z,101024.72
2022-07-29T22:55:32.494Z,101024.88
2022-07-29T22:57:59.456Z,101027.13
2022-07-29T23:00:26.469Z,101024.94
2022-07-29T23:02:53.387Z,101024.22
2022-07-29T23:05:20.396Z,101025.94
2022-07-29T23:07:47.449Z,101021.34
2022-07-29T23:10:14.409Z,101018.78
2022-07-29T23:12:41.343Z,101019.81
2022-07-29T23:15:08.668Z,101017.59
2022-07-29T23:17:36.906Z,101010.44
2022-07-29T23:20:09.923Z,101013.16
2022-07-29T23:22:37.858Z,101001.38
2022-07-29T23:25:06.397Z,101006.13
2022-07-29T23:27:33.686Z,101000.00
2022-07-29T23:30:01.109Z,100995.91
2022-07-29T23:32:28.230Z,100988.94
2022-07-29T23:34:55.514Z,100986.72
2022-07-29T23:37:22.647Z,100982.44
2022-07-29T23:39:49.614Z,100989.13
2022-07-29T23:42:16.663Z,100990.47
2022-07-29T23:44:43.765Z,100984.50
2022-07-29T23:47:10.751Z,100981.13
2022-07-29T23:49:37.958Z,100972.06
2022-07-29T23:52:05.853Z,100980.94
2022-07-29T23:54:33.349Z,100975.31
2022-07-29T23:57:01.213Z,100978.56
2022-07-29T23:59:28.381Z,100976.00
